createdAt,value
2019-04-21T00:00:29.719Z,12.90
2019-04-21T00:05:54.596Z,13.03
2019-04-21T00:11:00.828Z,13.58
2019-04-21T00:15:46.357Z,12.33
2019-04-21T00:20:49.533Z,14.27
2019-04-21T00:25:57.703Z,13.77
2019-04-21T00:31:07.304Z,13.32
2019-04-21T00:35:59.772Z,14.87
2019-04-21T00:41:19.604Z,14.40
2019-04-21T00:46:08.498Z,14.60
2019-04-21T00:51:33.227Z,15.00
2019-04-21T00:56:30.427Z,16.00
2019-04-21T01:01:31.437Z,15.00
2019-04-21T01:06:38.137Z,14.77
2019-04-21T01:11:44.876Z,15.67
2019-04-21T01:16:45.836Z,16.30
2019-04-21T01:21:25.053Z,15.00
2019-04-21T01:26:39.059Z,15.90
2019-04-21T01:31:51.103Z,16.00
2019-04-21T01:36:49.796Z,14.83
2019-04-21T01:41:57.591Z,16.20
2019-04-21T01:46:56.361Z,15.37
2019-04-21T01:52:17.624Z,16.87
2019-04-21T01:57:07.582Z,16.23
2019-04-21T02:02:11.142Z,16.83
2019-04-21T02:07:17.646Z,17.13
2019-04-21T02:12:20.697Z,16.23
2019-04-21T02:17:26.481Z,16.73
2019-04-21T02:22:43.130Z,17.33
2019-04-21T02:27:30.964Z,18.77
2019-04-21T02:32:43.876Z,19.87
2019-04-21T02:37:54.905Z,19.70
2019-04-21T02:43:00.226Z,20.23
2019-04-21T02:58:25.258Z,19.83
2019-04-21T03:03:09.233Z,19.57
2019-04-21T03:08:22.823Z,20.83
2019-04-21T03:13:14.357Z,21.67
2019-04-21T03:18:22.587Z,21.10
2019-04-21T03:28:25.181Z,21.93
2019-04-21T03:33:59.563Z,21.47
2019-04-21T03:38:37.510Z,20.37
2019-04-21T03:43:40.139Z,21.60
2019-04-21T03:49:02.293Z,21.57
2019-04-21T03:53:44.528Z,21.93
2019-04-21T03:58:54.406Z,21.73
2019-04-21T04:09:06.406Z,21.97
2019-04-21T04:14:03.468Z,21.83
2019-04-21T04:18:57.693Z,22.07
2019-04-21T04:29:12.185Z,22.80
2019-04-21T04:34:14.624Z,22.87
2019-04-21T04:39:36.313Z,22.97
2019-04-21T04:44:23.206Z,23.47
2019-04-21T04:49:38.979Z,24.60
2019-04-21T04:54:39.112Z,23.67
2019-04-21T05:09:39.620Z,25.93
2019-04-21T05:14:39.009Z,25.03
2019-04-21T05:19:55.756Z,27.73
2019-04-21T05:24:33.301Z,27.47
2019-04-21T05:29:49.807Z,29.27
2019-04-21T05:34:42.770Z,28.37
2019-04-21T05:39:47.978Z,27.77
2019-04-21T05:45:01.807Z,27.90
2019-04-21T05:49:55.486Z,28.37
2019-04-21T05:55:12.342Z,27.23
2019-04-21T06:00:08.835Z,24.93
2019-04-21T06:05:20.626Z,25.77
2019-04-21T06:10:12.409Z,26.17
2019-04-21T06:15:27.070Z,26.97
2019-04-21T06:20:30.749Z,28.13
2019-04-21T06:25:54.956Z,30.13
2019-04-21T06:30:35.987Z,30.10
2019-04-21T06:35:52.959Z,29.63
2019-04-21T06:40:46.254Z,29.97
2019-04-21T06:45:51.189Z,27.77
2019-04-21T06:50:52.962Z,28.77
2019-04-21T06:55:52.021Z,26.53
2019-04-21T07:00:58.794Z,25.77
2019-04-21T07:06:03.455Z,25.67
2019-04-21T07:11:04.011Z,25.33
2019-04-21T07:16:12.012Z,24.10
2019-04-21T07:21:09.625Z,24.97
2019-04-21T07:26:10.486Z,24.43
2019-04-21T07:31:17.851Z,24.00
2019-04-21T07:36:28.275Z,25.97
2019-04-21T07:41:15.969Z,24.70
2019-04-21T07:46:19.845Z,25.53
2019-04-21T07:51:31.579Z,24.67
2019-04-21T07:56:19.914Z,24.40
2019-04-21T08:01:35.301Z,23.98
2019-04-21T08:06:40.574Z,24.35
2019-04-21T08:11:38.321Z,25.05
2019-04-21T08:16:51.063Z,23.98
2019-04-21T08:22:03.829Z,24.20
2019-04-21T08:26:58.566Z,22.25
2019-04-21T08:32:03.079Z,22.62
2019-04-21T08:37:02.703Z,23.62
2019-04-21T08:42:08.558Z,23.07
2019-04-21T08:47:14.094Z,23.40
2019-04-21T08:52:20.935Z,24.07
2019-04-21T08:57:25.729Z,23.25
2019-04-21T09:02:23.726Z,23.07
2019-04-21T09:07:28.430Z,23.05
2019-04-21T09:12:29.489Z,21.77
2019-04-21T09:17:25.023Z,21.42
2019-04-21T09:22:37.734Z,23.22
2019-04-21T09:27:38.972Z,22.10
2019-04-21T09:32:26.780Z,21.52
2019-04-21T09:37:39.330Z,23.10
2019-04-21T09:42:35.965Z,21.05
2019-04-21T09:47:40.137Z,21.30
2019-04-21T09:52:45.149Z,20.05
2019-04-21T09:57:47.476Z,19.92
2019-04-21T10:02:53.512Z,21.15
2019-04-21T10:07:48.828Z,20.40
2019-04-21T10:12:51.887Z,21.95
2019-04-21T10:17:54.066Z,21.42
2019-04-21T10:22:55.634Z,22.90
2019-04-21T10:27:57.301Z,20.45
2019-04-21T10:33:00.741Z,20.30
2019-04-21T10:38:14.973Z,20.17
2019-04-21T10:43:09.963Z,19.75
2019-04-21T10:48:10.827Z,19.65
2019-04-21T10:53:13.395Z,17.50
2019-04-21T10:58:16.244Z,18.70
2019-04-21T11:03:19.128Z,21.73
2019-04-21T11:08:23.646Z,20.43
2019-04-21T11:13:24.623Z,20.80
2019-04-21T11:18:26.498Z,20.48
2019-04-21T11:23:29.018Z,22.60
2019-04-21T11:28:31.192Z,22.60
2019-04-21T11:33:33.411Z,22.82
2019-04-21T11:38:51.301Z,21.50
2019-04-21T11:43:39.124Z,21.90
2019-04-21T11:48:42.055Z,21.25
2019-04-21T11:53:43.738Z,22.32
2019-04-21T11:58:45.808Z,21.52
2019-04-21T12:03:47.898Z,21.48
2019-04-21T12:08:52.945Z,23.05
2019-04-21T12:13:54.267Z,24.18
2019-04-21T12:18:56.791Z,24.95
2019-04-21T12:23:58.890Z,23.67
2019-04-21T12:29:01.732Z,23.20
2019-04-21T12:34:03.701Z,26.48
2019-04-21T12:39:08.453Z,27.52
2019-04-21T12:44:10.880Z,26.15
2019-04-21T12:49:13.774Z,26.00
2019-04-21T12:54:15.555Z,27.37
2019-04-21T12:59:17.107Z,25.60
2019-04-21T13:04:19.752Z,27.10
2019-04-21T13:09:22.265Z,26.48
2019-04-21T13:14:24.413Z,26.73
2019-04-21T13:19:27.245Z,26.00
2019-04-21T13:24:29.599Z,25.48
2019-04-21T13:29:32.279Z,25.55
2019-04-21T13:34:33.955Z,22.55
2019-04-21T13:40:03.391Z,23.65
2019-04-21T13:44:39.222Z,19.25
2019-04-21T13:49:41.524Z,17.48
2019-04-21T13:54:43.333Z,17.70
2019-04-21T13:59:44.879Z,17.02
2019-04-21T14:04:47.371Z,15.35
2019-04-21T14:09:56.035Z,17.67
2019-04-21T14:14:52.601Z,16.25
2019-04-21T14:19:55.223Z,18.37
2019-04-21T14:24:57.243Z,15.10
2019-04-21T14:29:58.848Z,15.72
2019-04-21T14:35:00.898Z,15.32
2019-04-21T14:40:07.503Z,14.28
2019-04-21T14:45:07.034Z,14.15
2019-04-21T14:50:09.320Z,13.18
2019-04-21T14:55:12.198Z,13.58
2019-04-21T15:00:15.353Z,13.30
2019-04-21T15:05:17.589Z,13.80
2019-04-21T15:10:25.215Z,15.72
2019-04-21T15:15:23.526Z,15.40
2019-04-21T15:20:25.703Z,12.60
2019-04-21T15:25:30.195Z,15.70
2019-04-21T15:30:32.485Z,14.03
2019-04-21T15:35:35.263Z,19.92
2019-04-21T15:40:44.601Z,16.45
2019-04-21T15:45:40.788Z,15.00
2019-04-21T15:50:42.332Z,13.78
2019-04-21T15:55:44.528Z,13.10
2019-04-21T16:00:46.827Z,13.80
2019-04-21T16:05:48.815Z,14.53
2019-04-21T16:10:56.190Z,13.78
2019-04-21T16:15:54.565Z,12.78
2019-04-21T16:20:57.656Z,11.43
2019-04-21T16:25:59.789Z,12.37
2019-04-21T16:31:02.504Z,11.93
2019-04-21T16:36:05.466Z,12.90
2019-04-21T16:41:10.584Z,10.88
2019-04-21T16:46:11.128Z,10.90
2019-04-21T16:51:13.286Z,10.70
2019-04-21T16:56:15.310Z,9.85
2019-04-21T17:01:20.011Z,9.90
2019-04-21T17:06:20.473Z,10.23
2019-04-21T17:11:28.680Z,9.78
2019-04-21T17:17:02.929Z,8.50
2019-04-21T17:21:30.156Z,8.83
2019-04-21T17:26:35.567Z,9.08
2019-04-21T17:31:37.085Z,8.43
2019-04-21T17:36:39.265Z,8.98
2019-04-21T17:41:55.974Z,8.75
2019-04-21T17:46:53.641Z,9.40
2019-04-21T17:51:57.023Z,10.72
2019-04-21T17:57:20.206Z,13.05
2019-04-21T18:02:23.234Z,12.82
2019-04-21T18:07:26.129Z,14.28
2019-04-21T18:12:24.966Z,14.25
2019-04-21T18:17:11.560Z,13.93
2019-04-21T18:22:14.629Z,14.18
2019-04-21T18:27:17.510Z,14.60
2019-04-21T18:32:26.367Z,13.32
2019-04-21T18:37:33.098Z,13.95
2019-04-21T18:42:45.257Z,13.13
2019-04-21T18:47:47.182Z,13.43
2019-04-21T18:52:51.126Z,13.75
2019-04-21T18:57:44.431Z,13.60
2019-04-21T19:02:47.724Z,14.73
2019-04-21T19:08:03.054Z,14.45
2019-04-21T19:13:29.087Z,13.65
2019-04-21T19:23:19.197Z,14.13
2019-04-21T19:28:17.985Z,14.07
2019-04-21T19:33:22.413Z,14.25
2019-04-21T19:38:12.222Z,15.30
2019-04-21T19:43:31.449Z,14.23
2019-04-21T19:48:42.778Z,15.23
2019-04-21T19:53:35.299Z,14.75
2019-04-21T19:58:31.218Z,15.32
2019-04-21T20:03:28.474Z,16.23
2019-04-21T20:08:44.681Z,15.53
2019-04-21T20:14:03.294Z,15.40
2019-04-21T20:18:44.109Z,15.63
2019-04-21T20:23:43.212Z,14.93
2019-04-21T20:28:56.915Z,14.83
2019-04-21T20:34:11.122Z,13.10
2019-04-21T20:39:03.513Z,14.47
2019-04-21T20:44:17.215Z,13.65
2019-04-21T20:49:19.084Z,13.95
2019-04-21T20:54:28.591Z,14.23
2019-04-21T20:59:30.438Z,13.20
2019-04-21T21:04:29.610Z,13.28
2019-04-21T21:09:33.959Z,13.00
2019-04-21T21:14:42.316Z,13.18
2019-04-21T21:19:49.985Z,15.32
2019-04-21T21:24:53.416Z,16.05
2019-04-21T21:29:50.131Z,15.90
2019-04-21T21:34:57.197Z,13.93
2019-04-21T21:40:08.293Z,14.45
2019-04-21T21:44:54.600Z,14.73
2019-04-21T21:50:01.124Z,13.80
2019-04-21T21:54:55.811Z,14.20
2019-04-21T22:00:03.321Z,13.50
2019-04-21T22:05:09.461Z,13.90
2019-04-21T22:10:06.482Z,14.05
2019-04-21T22:15:14.600Z,13.70
2019-04-21T22:20:33.544Z,12.53
2019-04-21T22:25:22.591Z,13.75
2019-04-21T22:30:26.079Z,14.47
2019-04-21T22:35:30.080Z,15.23
2019-04-21T22:40:41.574Z,13.90
2019-04-21T22:45:29.327Z,15.05
2019-04-21T22:50:32.768Z,14.05
2019-04-21T22:55:35.300Z,15.78
2019-04-21T23:00:44.434Z,15.30
2019-04-21T23:05:43.511Z,15.15
2019-04-21T23:10:49.586Z,14.00
2019-04-21T23:15:53.664Z,15.25
2019-04-21T23:21:08.472Z,15.08
2019-04-21T23:26:14.500Z,14.43
2019-04-21T23:31:18.709Z,13.38
2019-04-21T23:36:11.362Z,12.30
2019-04-21T23:41:08.992Z,13.10
2019-04-21T23:46:19.820Z,13.63
2019-04-21T23:51:25.502Z,13.40
2019-04-21T23:56:21.679Z,14.43
